createdAt,value
2022-10-11T00:00:59.263Z,101512.88
2022-10-11T00:03:35.388Z,101515.33
2022-10-11T00:06:06.037Z,101518.48
2022-10-11T00:08:35.219Z,101519.00
2022-10-11T00:11:06.863Z,101522.34
2022-10-11T00:13:35.432Z,101517.28
2022-10-11T00:16:11.381Z,101515.88
2022-10-11T00:18:39.872Z,101519.73
2022-10-11T00:21:13.902Z,101522.53
2022-10-11T00:23:42.775Z,101516.76
2022-10-11T00:26:11.715Z,101513.78
2022-10-11T00:28:41.186Z,101514.30
2022-10-11T00:31:11.874Z,101512.38
2022-10-11T00:33:39.900Z,101515.70
2022-10-11T00:36:09.267Z,101514.48
2022-10-11T00:38:37.746Z,101512.03
2022-10-11T00:41:05.918Z,101508.38
2022-10-11T00:43:34.396Z,101506.80
2022-10-11T00:46:05.451Z,101512.22
2022-10-11T00:48:40.173Z,101507.50
2022-10-11T00:51:26.564Z,101506.80
2022-10-11T00:53:54.944Z,101497.89
2022-10-11T00:56:36.736Z,101490.55
2022-10-11T00:59:10.815Z,101487.59
2022-10-11T01:01:38.886Z,101487.59
2022-10-11T01:04:06.998Z,101485.67
2022-10-11T01:06:35.705Z,101490.05
2022-10-11T01:09:04.404Z,101488.64
2022-10-11T01:11:34.401Z,101488.63
2022-10-11T01:14:11.557Z,101491.23
2022-10-11T01:16:42.399Z,101494.04
2022-10-11T01:19:32.182Z,101497.36
2022-10-11T01:22:27.685Z,101494.58
2022-10-11T01:25:21.662Z,101490.56
2022-10-11T01:28:13.545Z,101493.89
2022-10-11T01:30:42.993Z,101491.97
2022-10-11T01:33:20.750Z,101491.09
2022-10-11T01:35:57.773Z,101491.09
2022-10-11T01:39:05.272Z,101490.21
2022-10-11T01:41:42.898Z,101489.35
2022-10-11T01:44:13.498Z,101488.12
2022-10-11T01:46:42.036Z,101488.98
2022-10-11T01:49:10.453Z,101487.77
2022-10-11T01:51:45.225Z,101498.94
2022-10-11T01:54:56.524Z,101500.50
2022-10-11T01:57:41.262Z,101507.65
2022-10-11T02:00:32.539Z,101509.91
2022-10-11T02:03:24.162Z,101509.39
2022-10-11T02:06:01.771Z,101510.96
2022-10-11T02:08:44.982Z,101513.23
2022-10-11T02:11:25.444Z,101514.10
2022-10-11T02:14:15.208Z,101508.50
2022-10-11T02:16:47.423Z,101510.25
2022-10-11T02:19:19.246Z,101513.03
2022-10-11T02:21:53.770Z,101513.38
2022-10-11T02:24:27.778Z,101509.02
2022-10-11T02:26:59.536Z,101509.71
2022-10-11T02:29:30.787Z,101518.60
2022-10-11T02:32:00.752Z,101535.89
2022-10-11T02:34:44.645Z,101534.67
2022-10-11T02:37:23.153Z,101528.21
2022-10-11T02:40:20.160Z,101532.41
2022-10-11T02:43:25.138Z,101526.66
2022-10-11T02:46:00.375Z,101530.84
2022-10-11T02:48:29.542Z,101527.36
2022-10-11T02:50:58.285Z,101531.91
2022-10-11T02:53:27.311Z,101530.36
2022-10-11T02:55:55.987Z,101530.02
2022-10-11T02:58:24.700Z,101532.98
2022-10-11T03:00:52.586Z,101535.79
2022-10-11T03:03:20.530Z,101538.06
2022-10-11T03:05:48.572Z,101535.80
2022-10-11T03:08:17.931Z,101535.27
2022-10-11T03:10:45.893Z,101532.30
2022-10-11T03:13:17.869Z,101537.38
2022-10-11T03:16:02.801Z,101537.55
2022-10-11T03:18:31.819Z,101536.50
2022-10-11T03:21:00.107Z,101540.88
2022-10-11T03:23:28.440Z,101546.11
2022-10-11T03:25:56.434Z,101548.91
2022-10-11T03:28:24.434Z,101557.13
2022-10-11T03:30:52.889Z,101568.30
2022-10-11T03:33:20.856Z,101569.54
2022-10-11T03:35:49.949Z,101567.61
2022-10-11T03:38:21.093Z,101571.29
2022-10-11T03:40:49.263Z,101569.20
2022-10-11T03:43:17.538Z,101571.81
2022-10-11T03:45:45.445Z,101571.29
2022-10-11T03:48:13.413Z,101575.14
2022-10-11T03:50:41.343Z,101577.23
2022-10-11T03:53:09.636Z,101580.55
2022-10-11T03:55:41.682Z,101581.77
2022-10-11T03:58:09.961Z,101578.63
2022-10-11T04:00:38.235Z,101580.73
2022-10-11T04:03:06.301Z,101580.02
2022-10-11T04:05:34.269Z,101580.73
2022-10-11T04:08:02.627Z,101584.75
2022-10-11T04:10:31.742Z,101587.20
2022-10-11T04:12:59.644Z,101591.05
2022-10-11T04:15:27.573Z,101588.25
2022-10-11T04:17:55.419Z,101596.81
2022-10-11T04:20:23.613Z,101594.89
2022-10-11T04:22:51.491Z,101595.94
2022-10-11T04:25:19.551Z,101599.96
2022-10-11T04:27:47.723Z,101606.77
2022-10-11T04:30:16.476Z,101605.38
2022-10-11T04:32:45.352Z,101611.33
2022-10-11T04:35:13.367Z,101617.08
2022-10-11T04:37:41.273Z,101619.35
2022-10-11T04:40:10.351Z,101620.74
2022-10-11T04:42:38.502Z,101620.91
2022-10-11T04:45:07.290Z,101620.21
2022-10-11T04:47:35.260Z,101625.97
2022-10-11T04:50:04.105Z,101630.85
2022-10-11T04:52:32.116Z,101628.05
2022-10-11T04:55:00.199Z,101631.02
2022-10-11T04:57:28.158Z,101634.50
2022-10-11T04:59:56.123Z,101635.54
2022-10-11T05:02:24.026Z,101641.12
2022-10-11T05:04:52.057Z,101643.55
2022-10-11T05:07:19.932Z,101649.14
2022-10-11T05:09:48.001Z,101648.09
2022-10-11T05:12:16.936Z,101652.09
2022-10-11T05:14:45.087Z,101655.05
2022-10-11T05:17:13.127Z,101658.52
2022-10-11T05:19:41.093Z,101664.46
2022-10-11T05:22:09.315Z,101670.73
2022-10-11T05:24:37.864Z,101681.19
2022-10-11T05:27:05.829Z,101687.45
2022-10-11T05:29:34.300Z,101691.45
2022-10-11T05:32:02.268Z,101690.72
2022-10-11T05:34:30.439Z,101698.04
2022-10-11T05:36:58.366Z,101703.78
2022-10-11T05:39:26.377Z,101705.70
2022-10-11T05:41:54.274Z,101710.57
2022-10-11T05:44:23.134Z,101713.19
2022-10-11T05:46:51.102Z,101721.23
2022-10-11T05:49:18.967Z,101721.58
2022-10-11T05:51:47.138Z,101724.36
2022-10-11T05:54:15.315Z,101724.90
2022-10-11T05:56:43.284Z,101732.23
2022-10-11T05:59:11.250Z,101735.91
2022-10-11T06:01:39.414Z,101736.80
2022-10-11T06:04:08.516Z,101737.51
2022-10-11T06:06:36.482Z,101743.97
2022-10-11T06:09:04.453Z,101749.05
2022-10-11T06:11:32.459Z,101757.62
2022-10-11T06:14:00.514Z,101757.80
2022-10-11T06:16:28.467Z,101765.49
2022-10-11T06:18:57.712Z,101769.53
2022-10-11T06:21:25.726Z,101769.56
2022-10-11T06:23:59.936Z,101776.91
2022-10-11T06:26:30.168Z,101779.91
2022-10-11T06:28:58.972Z,101786.77
2022-10-11T06:31:27.388Z,101792.02
2022-10-11T06:33:55.410Z,101794.50
2022-10-11T06:36:23.364Z,101800.99
2022-10-11T06:38:52.629Z,101807.13
2022-10-11T06:41:23.400Z,101809.59
2022-10-11T06:43:51.983Z,101816.95
2022-10-11T06:46:22.667Z,101816.11
2022-10-11T06:48:51.360Z,101822.08
2022-10-11T06:51:21.321Z,101820.89
2022-10-11T06:53:52.963Z,101819.90
2022-10-11T06:56:21.407Z,101820.64
2022-10-11T06:58:51.284Z,101826.61
2022-10-11T07:01:21.670Z,101831.17
2022-10-11T07:03:51.804Z,101835.39
2022-10-11T07:06:23.050Z,101834.89
2022-10-11T07:08:51.324Z,101838.77
2022-10-11T07:11:27.584Z,101842.63
2022-10-11T07:14:02.307Z,101846.13
2022-10-11T07:16:30.814Z,101846.85
2022-10-11T07:19:01.209Z,101850.00
2022-10-11T07:21:31.956Z,101850.01
2022-10-11T07:24:00.765Z,101854.38
2022-10-11T07:26:33.821Z,101857.70
2022-10-11T07:29:02.260Z,101858.92
2022-10-11T07:31:31.057Z,101862.95
2022-10-11T07:33:59.126Z,101869.09
2022-10-11T07:36:27.141Z,101872.77
2022-10-11T07:38:55.196Z,101876.95
2022-10-11T07:41:23.168Z,101879.73
2022-10-11T07:43:51.312Z,101883.56
2022-10-11T07:46:19.414Z,101885.47
2022-10-11T07:48:50.192Z,101888.60
2022-10-11T07:51:21.148Z,101890.17
2022-10-11T07:53:54.787Z,101895.74
2022-10-11T07:56:28.244Z,101897.30
2022-10-11T07:58:58.808Z,101900.60
2022-10-11T08:01:27.955Z,101904.59
2022-10-11T08:03:57.440Z,101907.69
2022-10-11T08:06:29.572Z,101911.33
2022-10-11T08:09:01.097Z,101916.73
2022-10-11T08:11:32.714Z,101917.42
2022-10-11T08:14:02.679Z,101921.42
2022-10-11T08:16:30.744Z,101919.27
2022-10-11T08:18:58.839Z,101921.35
2022-10-11T08:21:27.057Z,101925.02
2022-10-11T08:23:55.155Z,101927.27
2022-10-11T08:26:23.456Z,101925.66
2022-10-11T08:28:51.599Z,101926.49
2022-10-11T08:31:20.113Z,101933.31
2022-10-11T08:33:48.077Z,101934.70
2022-10-11T08:36:16.054Z,101934.67
2022-10-11T08:38:44.015Z,101938.17
2022-10-11T08:41:27.240Z,101940.79
2022-10-11T08:44:00.941Z,101942.35
2022-10-11T08:46:33.163Z,101945.84
2022-10-11T08:49:02.920Z,101943.34
2022-10-11T08:51:47.477Z,101951.20
2022-10-11T08:54:32.341Z,101952.39
2022-10-11T08:57:02.831Z,101952.19
2022-10-11T08:59:41.387Z,101953.75
2022-10-11T09:03:06.815Z,101958.34
2022-10-11T09:05:37.631Z,101964.36
2022-10-11T09:08:21.779Z,101965.04
2022-10-11T09:10:58.861Z,101968.54
2022-10-11T09:14:04.716Z,101976.60
2022-10-11T09:17:08.218Z,101979.58
2022-10-11T09:20:13.339Z,101983.44
2022-10-11T09:23:04.468Z,101987.79
2022-10-11T09:25:37.864Z,101988.27
2022-10-11T09:28:12.133Z,101993.30
2022-10-11T09:30:47.650Z,101992.92
2022-10-11T09:33:19.954Z,102001.84
2022-10-11T09:35:51.142Z,102001.30
2022-10-11T09:38:24.666Z,102004.10
2022-10-11T09:41:11.854Z,102004.62
2022-10-11T09:43:40.040Z,102008.98
2022-10-11T09:46:53.563Z,102012.80
2022-10-11T09:49:25.576Z,102015.46
2022-10-11T09:51:56.475Z,102016.17
2022-10-11T09:54:42.761Z,102017.41
2022-10-11T09:57:33.973Z,102025.39
2022-10-11T10:00:05.326Z,102024.15
2022-10-11T10:02:44.966Z,102030.31
2022-10-11T10:05:15.609Z,102028.02
2022-10-11T10:08:11.644Z,102029.78
2022-10-11T10:10:57.069Z,102027.17
2022-10-11T10:13:51.385Z,102030.52
2022-10-11T10:16:26.107Z,102035.28
2022-10-11T10:19:04.417Z,102037.20
2022-10-11T10:21:45.775Z,102038.79
2022-10-11T10:24:41.008Z,102036.82
2022-10-11T10:27:08.976Z,102041.39
2022-10-11T10:29:38.237Z,102041.71
2022-10-11T10:32:15.000Z,102041.12
2022-10-11T10:35:06.474Z,102044.51
2022-10-11T10:37:53.034Z,102051.07
2022-10-11T10:40:58.418Z,102052.37
2022-10-11T10:43:32.302Z,102053.16
2022-10-11T10:46:12.174Z,102057.64
2022-10-11T10:49:23.261Z,102059.00
2022-10-11T10:52:03.300Z,102060.75
2022-10-11T10:54:39.663Z,102057.75
2022-10-11T10:57:41.120Z,102062.98
2022-10-11T11:00:21.784Z,102066.48
2022-10-11T11:03:05.791Z,102067.13
2022-10-11T11:05:51.416Z,102070.73
2022-10-11T11:08:37.714Z,102074.84
2022-10-11T11:11:24.412Z,102069.80
2022-10-11T11:14:18.904Z,102074.08
2022-10-11T11:17:07.761Z,102076.95
2022-10-11T11:19:53.957Z,102078.05
2022-10-11T11:22:36.976Z,102073.40
2022-10-11T11:25:23.993Z,102074.05
2022-10-11T11:28:15.224Z,102074.19
2022-10-11T11:30:58.230Z,102075.31
2022-10-11T11:33:35.208Z,102073.38
2022-10-11T11:36:11.366Z,102076.73
2022-10-11T11:39:07.193Z,102085.56
2022-10-11T11:41:47.133Z,102085.78
2022-10-11T11:44:48.588Z,102095.17
2022-10-11T11:47:25.469Z,102095.90
2022-10-11T11:49:59.410Z,102095.50
2022-10-11T11:52:33.904Z,102099.48
2022-10-11T11:55:33.607Z,102099.91
2022-10-11T11:58:35.777Z,102092.80
2022-10-11T12:01:31.394Z,102100.98
2022-10-11T12:04:09.497Z,102099.98
2022-10-11T12:06:52.486Z,102105.81
2022-10-11T12:09:27.291Z,102103.91
2022-10-11T12:12:34.022Z,102103.06
2022-10-11T12:15:18.682Z,102099.27
2022-10-11T12:18:04.161Z,102095.76
2022-10-11T12:20:38.169Z,102087.11
2022-10-11T12:23:29.042Z,102087.61
2022-10-11T12:26:32.168Z,102081.09
2022-10-11T12:29:05.427Z,102088.45
2022-10-11T12:31:35.965Z,102088.59
2022-10-11T12:34:37.227Z,102090.34
2022-10-11T12:37:31.726Z,102091.40
2022-10-11T12:40:00.469Z,102088.76
2022-10-11T12:42:36.482Z,102093.67
2022-10-11T12:45:13.454Z,102094.16
2022-10-11T12:47:44.178Z,102101.17
2022-10-11T12:50:26.085Z,102098.86
2022-10-11T12:54:02.288Z,102103.96
2022-10-11T12:56:57.756Z,102112.31
2022-10-11T12:59:26.543Z,102114.98
2022-10-11T13:01:58.204Z,102117.45
2022-10-11T13:04:29.437Z,102115.16
2022-10-11T13:07:06.813Z,102112.19
2022-10-11T13:09:39.509Z,102112.19
2022-10-11T13:12:13.623Z,102115.16
2022-10-11T13:15:07.703Z,102114.84
2022-10-11T13:17:39.356Z,102121.75
2022-10-11T13:20:16.446Z,102122.13
2022-10-11T13:22:48.194Z,102120.92
2022-10-11T13:25:23.515Z,102121.50
2022-10-11T13:27:53.652Z,102118.53
2022-10-11T13:30:28.275Z,102120.33
2022-10-11T13:32:57.090Z,102125.09
2022-10-11T13:35:34.764Z,102128.45
2022-10-11T13:38:07.542Z,102126.52
2022-10-11T13:40:35.932Z,102129.15
2022-10-11T13:43:06.010Z,102131.27
2022-10-11T13:45:37.661Z,102131.45
2022-10-11T13:48:16.516Z,102131.41
2022-10-11T13:50:52.262Z,102134.74
2022-10-11T13:53:25.557Z,102132.63
2022-10-11T13:56:06.373Z,102134.23
2022-10-11T13:58:46.455Z,102134.59
2022-10-11T14:01:24.971Z,102137.95
2022-10-11T14:04:11.274Z,102141.30
2022-10-11T14:07:01.043Z,102141.48
2022-10-11T14:09:39.719Z,102153.64
2022-10-11T14:12:26.297Z,102150.66
2022-10-11T14:14:54.685Z,102149.62
2022-10-11T14:17:42.714Z,102153.66
2022-10-11T14:20:20.507Z,102158.07
2022-10-11T14:22:52.759Z,102156.16
2022-10-11T14:25:21.929Z,102161.66
2022-10-11T14:27:50.201Z,102164.32
2022-10-11T14:30:25.771Z,102165.58
2022-10-11T14:32:57.147Z,102165.44
2022-10-11T14:35:32.078Z,102165.11
2022-10-11T14:38:00.350Z,102168.83
2022-10-11T14:40:30.881Z,102172.53
2022-10-11T14:42:59.021Z,102171.85
2022-10-11T14:45:28.082Z,102171.88
2022-10-11T14:47:56.729Z,102172.60
2022-10-11T14:50:30.790Z,102177.90
2022-10-11T14:52:59.019Z,102177.22
2022-10-11T14:55:27.369Z,102177.93
2022-10-11T14:57:56.416Z,102173.56
2022-10-11T15:00:28.065Z,102175.85
2022-10-11T15:02:56.661Z,102184.98
2022-10-11T15:05:32.680Z,102187.95
2022-10-11T15:08:03.206Z,102187.78
2022-10-11T15:10:36.295Z,102192.00
2022-10-11T15:13:05.318Z,102199.90
2022-10-11T15:15:36.949Z,102191.66
2022-10-11T15:18:06.825Z,102192.54
2022-10-11T15:20:38.611Z,102196.05
2022-10-11T15:23:09.913Z,102194.98
2022-10-11T15:25:40.080Z,102199.55
2022-10-11T15:28:14.821Z,102200.42
2022-10-11T15:30:43.285Z,102204.29
2022-10-11T15:33:11.707Z,102213.41
2022-10-11T15:35:45.984Z,102213.59
2022-10-11T15:38:24.190Z,102216.56
2022-10-11T15:40:52.945Z,102223.77
2022-10-11T15:43:24.795Z,102225.69
2022-10-11T15:45:58.024Z,102228.32
2022-10-11T15:48:27.721Z,102230.77
2022-10-11T15:50:55.830Z,102236.02
2022-10-11T15:53:31.157Z,102238.83
2022-10-11T15:56:02.575Z,102242.15
2022-10-11T15:58:36.579Z,102243.55
2022-10-11T16:01:08.415Z,102247.23
2022-10-11T16:03:36.859Z,102249.50
2022-10-11T16:06:05.835Z,102251.94
2022-10-11T16:08:34.571Z,102258.59
2022-10-11T16:11:04.329Z,102264.02
2022-10-11T16:13:32.708Z,102261.39
2022-10-11T16:16:02.630Z,102262.27
2022-10-11T16:18:35.332Z,102267.52
2022-10-11T16:21:10.139Z,102266.96
2022-10-11T16:23:39.022Z,102271.70
2022-10-11T16:26:13.495Z,102270.62
2022-10-11T16:28:42.206Z,102268.69
2022-10-11T16:31:14.297Z,102269.39
2022-10-11T16:33:48.383Z,102272.36
2022-10-11T16:36:32.662Z,102272.52
2022-10-11T16:39:02.563Z,102270.08
2022-10-11T16:41:30.562Z,102271.30
2022-10-11T16:43:58.641Z,102274.80
2022-10-11T16:46:26.889Z,102275.33
2022-10-11T16:48:56.594Z,102279.17
2022-10-11T16:51:25.071Z,102283.05
2022-10-11T16:53:53.537Z,102284.79
2022-10-11T16:56:24.325Z,102283.38
2022-10-11T16:58:53.425Z,102283.55
2022-10-11T17:01:22.089Z,102286.52
2022-10-11T17:03:51.106Z,102291.77
2022-10-11T17:06:20.150Z,102291.22
2022-10-11T17:08:48.189Z,102296.11
2022-10-11T17:11:21.989Z,102299.20
2022-10-11T17:13:53.541Z,102299.52
2022-10-11T17:16:22.891Z,102300.02
2022-10-11T17:18:51.413Z,102303.66
2022-10-11T17:21:23.416Z,102299.77
2022-10-11T17:23:51.796Z,102293.42
2022-10-11T17:26:26.403Z,102299.52
2022-10-11T17:28:56.982Z,102302.27
2022-10-11T17:31:26.270Z,102306.94
2022-10-11T17:33:55.319Z,102303.57
2022-10-11T17:36:27.934Z,102308.08
2022-10-11T17:38:55.992Z,102307.66
2022-10-11T17:41:28.155Z,102307.09
2022-10-11T17:43:59.724Z,102310.19
2022-10-11T17:46:32.380Z,102307.69
2022-10-11T17:49:02.092Z,102313.76
2022-10-11T17:51:30.060Z,102313.54
2022-10-11T17:53:58.032Z,102318.73
2022-10-11T17:56:30.434Z,102318.70
2022-10-11T17:59:00.555Z,102315.14
2022-10-11T18:01:29.613Z,102315.63
2022-10-11T18:04:03.422Z,102316.08
2022-10-11T18:06:33.643Z,102317.92
2022-10-11T18:09:03.046Z,102317.15
2022-10-11T18:11:31.626Z,102318.80
2022-10-11T18:13:59.891Z,102315.94
2022-10-11T18:16:30.426Z,102324.80
2022-10-11T18:18:59.125Z,102325.25
2022-10-11T18:21:33.995Z,102323.97
2022-10-11T18:24:15.142Z,102323.57
2022-10-11T18:26:45.136Z,102327.49
2022-10-11T18:29:15.325Z,102328.48
2022-10-11T18:31:43.734Z,102325.23
2022-10-11T18:34:13.231Z,102325.15
2022-10-11T18:36:41.522Z,102324.38
2022-10-11T18:39:14.533Z,102327.27
2022-10-11T18:41:44.722Z,102327.16
2022-10-11T18:44:15.331Z,102331.98
2022-10-11T18:46:44.467Z,102331.20
2022-10-11T18:49:13.651Z,102331.83
2022-10-11T18:51:43.048Z,102330.03
2022-10-11T18:54:15.404Z,102330.48
2022-10-11T18:56:46.372Z,102335.58
2022-10-11T18:59:14.429Z,102343.51
2022-10-11T19:01:44.776Z,102347.42
2022-10-11T19:04:16.155Z,102346.25
2022-10-11T19:06:49.663Z,102343.52
2022-10-11T19:09:24.734Z,102339.23
2022-10-11T19:11:55.671Z,102338.05
2022-10-11T19:14:26.743Z,102340.24
2022-10-11T19:16:56.414Z,102338.06
2022-10-11T19:19:27.966Z,102340.93
2022-10-11T19:21:55.937Z,102343.05
2022-10-11T19:24:27.241Z,102341.74
2022-10-11T19:26:59.851Z,102343.04
2022-10-11T19:29:31.104Z,102341.20
2022-10-11T19:32:01.443Z,102340.48
2022-10-11T19:34:31.735Z,102338.85
2022-10-11T19:37:01.388Z,102344.91
2022-10-11T19:39:29.806Z,102342.57
2022-10-11T19:41:58.019Z,102342.70
2022-10-11T19:44:26.291Z,102342.67
2022-10-11T19:46:54.263Z,102343.66
2022-10-11T19:49:25.294Z,102342.36
2022-10-11T19:51:55.613Z,102336.89
2022-10-11T19:54:23.899Z,102338.89
2022-10-11T19:56:52.775Z,102342.33
2022-10-11T19:59:20.751Z,102345.21
2022-10-11T20:01:52.735Z,102344.58
2022-10-11T20:04:50.498Z,102349.37
2022-10-11T20:07:10.576Z,102345.25
2022-10-11T20:09:38.636Z,102347.09
2022-10-11T20:12:07.779Z,102348.06
2022-10-11T20:14:35.800Z,102353.75
2022-10-11T20:17:03.876Z,102351.08
2022-10-11T20:19:32.056Z,102353.84
2022-10-11T20:22:01.068Z,102348.95
2022-10-11T20:24:33.666Z,102350.65
2022-10-11T20:27:06.026Z,102353.59
2022-10-11T20:29:34.563Z,102349.55
2022-10-11T20:32:02.637Z,102351.24
2022-10-11T20:34:31.181Z,102344.68
2022-10-11T20:36:59.492Z,102344.46
2022-10-11T20:39:27.435Z,102349.77
2022-10-11T20:41:55.536Z,102348.42
2022-10-11T20:44:23.713Z,102356.00
2022-10-11T20:46:51.877Z,102355.54
2022-10-11T20:49:20.202Z,102355.98
2022-10-11T20:51:48.917Z,102353.16
2022-10-11T20:54:17.639Z,102356.59
2022-10-11T20:56:46.309Z,102353.38
2022-10-11T20:59:14.401Z,102356.43
2022-10-11T21:01:42.722Z,102355.30
2022-10-11T21:04:18.840Z,102355.90
2022-10-11T21:06:48.284Z,102357.52
2022-10-11T21:09:17.291Z,102359.00
2022-10-11T21:11:45.694Z,102359.30
2022-10-11T21:14:14.409Z,102360.48
2022-10-11T21:16:42.546Z,102359.75
2022-10-11T21:19:13.151Z,102358.14
2022-10-11T21:21:41.510Z,102357.27
2022-10-11T21:24:10.259Z,102358.29
2022-10-11T21:26:38.182Z,102363.62
2022-10-11T21:29:06.492Z,102364.83
2022-10-11T21:31:34.728Z,102363.76
2022-10-11T21:34:05.298Z,102365.98
2022-10-11T21:36:33.888Z,102363.83
2022-10-11T21:39:01.941Z,102365.54
2022-10-11T21:41:34.182Z,102368.27
2022-10-11T21:44:02.290Z,102369.92
2022-10-11T21:49:20.234Z,102371.08
2022-10-11T21:51:48.711Z,102372.77
2022-10-11T21:54:17.164Z,102377.44
2022-10-11T21:56:45.036Z,102378.13
2022-10-11T21:59:13.592Z,102376.20
2022-10-11T22:01:43.449Z,102373.38
2022-10-11T22:04:12.458Z,102374.85
2022-10-11T22:06:40.722Z,102377.71
2022-10-11T22:09:09.117Z,102376.39
2022-10-11T22:11:37.949Z,102378.10
2022-10-11T22:14:06.088Z,102379.78
2022-10-11T22:16:35.182Z,102374.52
2022-10-11T22:19:03.738Z,102372.73
2022-10-11T22:21:31.807Z,102373.73
2022-10-11T22:23:59.876Z,102374.40
2022-10-11T22:26:31.051Z,102373.17
2022-10-11T22:29:00.430Z,102373.98
2022-10-11T22:31:29.496Z,102375.16
2022-10-11T22:33:59.409Z,102372.90
2022-10-11T22:36:30.649Z,102373.98
2022-10-11T22:38:59.181Z,102370.21
2022-10-11T22:41:27.229Z,102377.91
2022-10-11T22:43:55.202Z,102376.78
2022-10-11T22:46:23.122Z,102376.33
2022-10-11T22:48:50.992Z,102376.15
2022-10-11T22:51:19.783Z,102377.16
2022-10-11T22:53:47.749Z,102377.48
2022-10-11T22:56:15.754Z,102382.83
2022-10-11T22:58:43.723Z,102379.27
2022-10-11T23:01:16.043Z,102377.58
2022-10-11T23:03:47.243Z,102380.42
2022-10-11T23:06:15.200Z,102382.40
2022-10-11T23:08:44.507Z,102385.30
2022-10-11T23:11:12.888Z,102386.25
2022-10-11T23:13:40.849Z,102383.56
2022-10-11T23:16:11.235Z,102384.17
2022-10-11T23:18:39.546Z,102381.63
2022-10-11T23:21:08.353Z,102382.02
2022-10-11T23:23:36.305Z,102382.95
2022-10-11T23:26:16.324Z,102383.48
2022-10-11T23:28:44.870Z,102384.33
2022-10-11T23:31:18.142Z,102384.95
2022-10-11T23:33:47.018Z,102385.59
2022-10-11T23:36:24.177Z,102387.13
2022-10-11T23:38:54.630Z,102387.78
2022-10-11T23:41:27.987Z,102388.84
2022-10-11T23:43:56.365Z,102388.84
2022-10-11T23:46:25.720Z,102391.62
2022-10-11T23:48:53.669Z,102386.09
2022-10-11T23:51:21.636Z,102389.48
2022-10-11T23:53:49.501Z,102390.39
2022-10-11T23:56:17.680Z,102396.69
2022-10-11T23:58:45.956Z,102401.07
